createdAt,value
2019-01-11T01:03:53.151Z,11.87
2019-01-11T01:06:21.816Z,11.93
2019-01-11T01:08:50.503Z,14.83
2019-01-11T01:11:19.167Z,12.87
2019-01-11T01:13:47.930Z,13.50
2019-01-11T01:16:16.608Z,12.93
2019-01-11T01:18:45.257Z,15.73
2019-01-11T01:21:13.992Z,14.57
2019-01-11T01:23:42.708Z,14.63
2019-01-11T01:26:11.336Z,15.87
2019-01-11T01:28:39.977Z,14.70
2019-01-11T01:31:08.700Z,15.30
2019-01-11T01:33:37.323Z,18.27
2019-01-11T01:36:05.974Z,15.20
2019-01-11T01:38:34.683Z,18.03
2019-01-11T01:41:04.844Z,16.23
2019-01-11T01:43:33.558Z,14.10
2019-01-11T01:46:02.212Z,16.27
2019-01-11T01:48:30.878Z,17.03
2019-01-11T01:50:59.552Z,14.77
2019-01-11T01:53:28.200Z,14.63
2019-01-11T01:55:56.954Z,14.67
2019-01-11T01:58:25.616Z,13.30
2019-01-11T02:00:54.258Z,14.07
2019-01-11T02:03:22.955Z,14.67
2019-01-11T02:05:51.656Z,14.80
2019-01-11T02:08:20.344Z,16.13
2019-01-11T02:10:49.003Z,17.17
2019-01-11T02:13:17.792Z,17.93
2019-01-11T02:15:46.445Z,18.13
2019-01-11T02:18:15.101Z,17.43
2019-01-11T02:20:43.835Z,18.90
2019-01-11T02:23:12.514Z,18.33
2019-01-11T02:25:46.176Z,18.07
2019-01-11T02:28:11.504Z,18.93
2019-01-11T02:30:40.214Z,17.50
2019-01-11T02:33:08.855Z,19.27
2019-01-11T02:35:37.536Z,19.10
2019-01-11T02:38:06.180Z,21.63
2019-01-11T02:40:34.850Z,21.33
2019-01-11T02:43:03.517Z,25.43
2019-01-11T02:45:32.231Z,27.33
2019-01-11T02:48:00.902Z,29.90
2019-01-11T02:50:29.592Z,23.40
2019-01-11T02:52:58.272Z,25.93
2019-01-11T02:55:26.923Z,27.57
2019-01-11T02:57:55.603Z,24.73
2019-01-11T03:00:24.315Z,22.60
2019-01-11T03:02:52.953Z,22.37
2019-01-11T03:05:21.810Z,23.30
2019-01-11T03:07:50.473Z,21.30
2019-01-11T03:10:20.996Z,22.47
2019-01-11T03:12:49.665Z,24.70
2019-01-11T03:15:18.436Z,29.23
2019-01-11T03:17:47.101Z,28.37
2019-01-11T03:20:17.261Z,27.30
2019-01-11T03:22:45.947Z,24.57
2019-01-11T03:25:15.915Z,28.27
2019-01-11T03:27:44.660Z,23.57
2019-01-11T03:30:18.778Z,25.07
2019-01-11T03:32:48.461Z,32.03
2019-01-11T03:35:18.619Z,24.87
2019-01-11T03:37:48.495Z,24.77
2019-01-11T03:40:22.020Z,28.57
2019-01-11T03:42:50.773Z,32.70
2019-01-11T03:45:21.343Z,41.40
2019-01-11T03:47:50.011Z,32.67
2019-01-11T03:50:20.151Z,24.33
2019-01-11T03:52:48.857Z,22.60
2019-01-11T03:55:17.913Z,34.67
2019-01-11T03:57:46.578Z,23.30
2019-01-11T04:00:22.376Z,27.40
2019-01-11T04:02:51.053Z,22.57
2019-01-11T04:05:19.726Z,28.77
2019-01-11T04:07:48.392Z,20.03
2019-01-11T04:10:18.962Z,20.37
2019-01-11T04:12:47.637Z,21.87
2019-01-11T04:15:18.483Z,19.43
2019-01-11T04:17:48.793Z,24.63
2019-01-11T04:20:18.908Z,20.87
2019-01-11T04:22:52.190Z,27.73
2019-01-11T04:25:22.449Z,21.87
2019-01-11T04:27:51.879Z,24.13
2019-01-11T04:30:20.769Z,19.77
2019-01-11T04:32:49.429Z,27.73
2019-01-11T04:35:18.136Z,23.33
2019-01-11T04:37:46.904Z,31.43
2019-01-11T04:40:16.201Z,20.30
2019-01-11T04:42:44.849Z,28.33
2019-01-11T04:45:13.520Z,32.27
2019-01-11T04:47:42.277Z,20.83
2019-01-11T04:50:16.137Z,22.07
2019-01-11T04:52:46.272Z,24.00
2019-01-11T04:55:15.621Z,26.07
2019-01-11T04:57:44.277Z,30.33
2019-01-11T05:00:16.166Z,24.50
2019-01-11T05:02:44.931Z,27.70
2019-01-11T05:05:13.636Z,24.27
2019-01-11T05:07:42.295Z,25.13
2019-01-11T05:10:13.655Z,24.93
2019-01-11T05:12:42.334Z,22.53
2019-01-11T05:15:11.005Z,24.73
2019-01-11T05:17:39.721Z,23.17
2019-01-11T05:20:16.763Z,24.13
2019-01-11T05:22:43.855Z,23.67
2019-01-11T05:25:12.513Z,25.60
2019-01-11T05:27:41.231Z,24.07
2019-01-11T05:30:15.077Z,25.30
2019-01-11T05:32:43.752Z,23.40
2019-01-11T05:35:12.501Z,24.23
2019-01-11T05:37:41.117Z,21.57
2019-01-11T05:40:12.938Z,23.60
2019-01-11T05:42:41.656Z,22.03
2019-01-11T05:45:10.446Z,20.97
2019-01-11T05:47:39.109Z,21.77
2019-01-11T05:50:11.281Z,20.80
2019-01-11T05:52:40.267Z,20.90
2019-01-11T05:55:10.804Z,20.07
2019-01-11T05:57:41.058Z,19.03
2019-01-11T06:00:11.406Z,19.43
2019-01-11T06:02:40.064Z,20.37
2019-01-11T06:05:10.304Z,20.23
2019-01-11T06:07:40.648Z,21.33
2019-01-11T06:10:12.554Z,21.17
2019-01-11T06:12:41.200Z,20.40
2019-01-11T06:15:09.809Z,20.90
2019-01-11T06:17:38.484Z,22.77
2019-01-11T06:20:10.311Z,22.53
2019-01-11T06:22:39.032Z,20.40
2019-01-11T06:25:07.764Z,21.50
2019-01-11T06:27:37.090Z,20.90
2019-01-11T06:30:09.052Z,22.30
2019-01-11T06:32:37.717Z,23.10
2019-01-11T06:35:06.550Z,24.17
2019-01-11T06:37:35.232Z,23.20
2019-01-11T06:40:05.879Z,21.83
2019-01-11T06:42:34.564Z,22.23
2019-01-11T06:45:03.231Z,21.83
2019-01-11T06:47:31.963Z,20.77
2019-01-11T06:50:00.642Z,19.70
2019-01-11T06:52:29.341Z,22.67
2019-01-11T06:54:58.051Z,22.93
2019-01-11T06:57:26.792Z,20.07
2019-01-11T06:59:55.456Z,22.90
2019-01-11T07:02:24.135Z,22.70
2019-01-11T07:04:52.808Z,22.33
2019-01-11T07:07:21.471Z,23.57
2019-01-11T07:09:50.484Z,21.77
2019-01-11T07:12:19.780Z,20.63
2019-01-11T07:14:48.445Z,20.40
2019-01-11T07:17:17.117Z,18.93
2019-01-11T07:19:45.779Z,18.30
2019-01-11T07:22:15.700Z,19.80
2019-01-11T07:24:44.374Z,19.63
2019-01-11T07:27:13.048Z,17.30
2019-01-11T07:29:41.796Z,18.10
2019-01-11T07:32:10.490Z,19.67
2019-01-11T07:34:39.309Z,19.67
2019-01-11T07:37:08.012Z,18.37
2019-01-11T07:39:36.739Z,17.80
2019-01-11T07:42:05.392Z,17.60
2019-01-11T07:44:34.077Z,18.67
2019-01-11T07:47:02.770Z,16.37
2019-01-11T07:49:31.471Z,17.87
2019-01-11T07:52:00.131Z,17.37
2019-01-11T07:54:28.823Z,19.43
2019-01-11T07:56:58.625Z,18.73
2019-01-11T07:59:33.693Z,16.97
2019-01-11T08:02:02.352Z,17.33
2019-01-11T08:04:32.632Z,18.00
2019-01-11T08:07:01.256Z,15.67
2019-01-11T08:09:31.220Z,16.70
2019-01-11T08:12:04.254Z,17.27
2019-01-11T08:14:33.102Z,16.00
2019-01-11T08:17:01.758Z,14.87
2019-01-11T08:19:31.947Z,13.67
2019-01-11T08:22:02.273Z,13.70
2019-01-11T08:24:30.908Z,14.00
2019-01-11T08:26:59.715Z,15.27
2019-01-11T08:29:28.446Z,13.77
2019-01-11T08:31:57.148Z,14.17
2019-01-11T08:34:25.833Z,12.97
2019-01-11T08:36:54.532Z,13.13
2019-01-11T08:39:23.221Z,13.20
2019-01-11T08:41:51.933Z,14.23
2019-01-11T08:44:20.656Z,12.70
2019-01-11T08:46:49.313Z,15.20
2019-01-11T08:49:17.986Z,15.43
2019-01-11T08:51:49.607Z,16.90
2019-01-11T08:54:18.266Z,15.07
2019-01-11T08:56:47.119Z,17.83
2019-01-11T08:59:15.752Z,17.43
2019-01-11T09:01:44.464Z,16.83
2019-01-11T09:04:13.172Z,18.00
2019-01-11T09:06:41.847Z,18.87
2019-01-11T09:09:10.578Z,18.07
2019-01-11T09:11:39.263Z,18.07
2019-01-11T09:14:09.461Z,18.60
2019-01-11T09:16:38.124Z,18.83
2019-01-11T09:19:06.965Z,18.77
2019-01-11T09:21:41.432Z,19.03
2019-01-11T09:24:05.935Z,16.27
2019-01-11T09:26:34.640Z,15.83
2019-01-11T09:29:03.315Z,16.83
2019-01-11T09:31:32.075Z,14.90
2019-01-11T09:34:01.758Z,15.40
2019-01-11T09:36:30.453Z,16.43
2019-01-11T09:38:59.112Z,15.03
2019-01-11T09:41:27.794Z,15.33
2019-01-11T09:43:56.456Z,15.50
2019-01-11T09:46:25.112Z,13.67
2019-01-11T09:48:53.834Z,14.67
2019-01-11T09:51:22.503Z,13.47
2019-01-11T09:53:51.259Z,12.67
2019-01-11T09:56:19.916Z,13.07
2019-01-11T09:58:48.648Z,12.47
2019-01-11T10:01:17.525Z,11.43
2019-01-11T10:03:46.190Z,11.40
2019-01-11T10:06:14.890Z,12.47
2019-01-11T10:08:43.581Z,12.07
2019-01-11T10:11:13.563Z,12.60
2019-01-11T10:13:44.063Z,13.20
2019-01-11T10:16:12.720Z,12.97
2019-01-11T10:18:41.399Z,12.30
2019-01-11T10:21:10.078Z,12.43
2019-01-11T10:23:38.822Z,13.37
2019-01-11T10:26:07.478Z,12.47
2019-01-11T10:28:36.129Z,13.57
2019-01-11T10:31:04.876Z,12.57
2019-01-11T10:33:36.301Z,13.67
2019-01-11T10:36:04.009Z,18.33
2019-01-11T10:38:32.662Z,11.80
2019-01-11T10:41:01.383Z,12.63
2019-01-11T10:43:30.098Z,14.43
2019-01-11T10:46:03.120Z,14.97
2019-01-11T10:48:31.802Z,12.27
2019-01-11T10:51:00.437Z,13.67
2019-01-11T10:53:29.129Z,17.80
2019-01-11T10:55:57.788Z,12.17
2019-01-11T10:58:26.494Z,12.57
2019-01-11T11:00:55.208Z,13.20
2019-01-11T11:03:23.876Z,13.73
2019-01-11T11:05:52.554Z,14.20
2019-01-11T11:08:21.210Z,12.90
2019-01-11T11:10:49.922Z,13.47
2019-01-11T11:13:18.604Z,14.77
2019-01-11T11:15:48.920Z,13.80
2019-01-11T11:18:17.691Z,13.53
2019-01-11T11:20:46.373Z,13.90
2019-01-11T11:23:15.042Z,15.03
2019-01-11T11:25:43.697Z,15.03
2019-01-11T11:28:12.428Z,14.50
2019-01-11T11:30:41.086Z,13.47
2019-01-11T11:33:09.859Z,14.23
2019-01-11T11:35:38.531Z,12.80
2019-01-11T11:38:07.217Z,15.30
2019-01-11T11:40:35.932Z,13.70
2019-01-11T11:43:04.578Z,13.97
2019-01-11T11:45:33.352Z,13.20
2019-01-11T11:48:02.014Z,15.07
2019-01-11T11:50:30.754Z,14.93
2019-01-11T11:52:59.430Z,16.47
2019-01-11T11:55:28.157Z,16.10
2019-01-11T11:57:56.802Z,15.93
2019-01-11T12:00:27.029Z,15.33
2019-01-11T12:02:55.702Z,15.20
2019-01-11T12:05:24.412Z,16.00
2019-01-11T12:07:53.083Z,15.60
2019-01-11T12:10:24.607Z,15.93
2019-01-11T12:12:53.295Z,15.97
2019-01-11T12:15:23.356Z,16.30
2019-01-11T12:17:52.074Z,15.07
2019-01-11T12:20:26.679Z,17.80
2019-01-11T12:22:55.395Z,16.50
2019-01-11T12:25:24.069Z,17.43
2019-01-11T12:27:52.755Z,17.83
2019-01-11T12:30:21.421Z,19.13
2019-01-11T12:32:50.080Z,18.93
2019-01-11T12:35:18.741Z,17.67
2019-01-11T12:37:47.501Z,17.80
2019-01-11T12:40:16.186Z,17.00
2019-01-11T12:42:44.895Z,19.33
2019-01-11T12:45:15.280Z,21.23
2019-01-11T12:47:43.932Z,17.97
2019-01-11T12:50:15.777Z,17.00
2019-01-11T12:52:44.412Z,16.90
2019-01-11T12:55:13.172Z,17.97
2019-01-11T12:57:41.887Z,18.50
2019-01-11T13:00:13.863Z,19.20
2019-01-11T13:02:42.528Z,17.87
2019-01-11T13:05:13.518Z,18.83
2019-01-11T13:07:42.228Z,19.47
2019-01-11T13:10:13.672Z,17.93
2019-01-11T13:12:42.351Z,20.83
2019-01-11T13:15:13.545Z,20.30
2019-01-11T13:17:42.221Z,16.57
2019-01-11T13:20:13.344Z,17.67
2019-01-11T13:22:42.113Z,18.77
2019-01-11T13:25:10.834Z,18.97
2019-01-11T13:27:39.487Z,19.23
2019-01-11T13:30:11.283Z,18.43
2019-01-11T13:32:39.999Z,16.70
2019-01-11T13:35:08.676Z,18.50
2019-01-11T13:37:37.402Z,19.50
2019-01-11T13:40:12.649Z,17.83
2019-01-11T13:42:41.362Z,19.17
2019-01-11T13:45:12.832Z,17.33
2019-01-11T13:47:41.550Z,18.30
2019-01-11T13:50:16.304Z,18.87
2019-01-11T13:52:44.979Z,19.03
2019-01-11T13:55:13.732Z,20.00
2019-01-11T13:57:42.379Z,18.27
2019-01-11T14:00:14.680Z,18.77
2019-01-11T14:02:43.907Z,19.43
2019-01-11T14:05:12.605Z,17.53
2019-01-11T14:07:41.320Z,16.53
2019-01-11T14:10:10.250Z,17.67
2019-01-11T14:12:39.044Z,16.77
2019-01-11T14:15:10.004Z,17.67
2019-01-11T14:17:38.798Z,19.37
2019-01-11T14:20:10.129Z,17.73
2019-01-11T14:22:38.809Z,19.57
2019-01-11T14:25:09.340Z,21.73
2019-01-11T14:27:39.626Z,19.37
2019-01-11T14:30:13.990Z,19.10
2019-01-11T14:32:42.726Z,20.77
2019-01-11T14:35:11.413Z,19.73
2019-01-11T14:37:41.488Z,21.03
2019-01-11T14:40:13.354Z,18.60
2019-01-11T14:42:42.090Z,19.47
2019-01-11T14:45:14.826Z,20.07
2019-01-11T14:47:43.560Z,19.50
2019-01-11T14:50:14.407Z,18.47
2019-01-11T14:52:44.414Z,20.63
2019-01-11T14:55:13.232Z,21.50
2019-01-11T14:57:41.953Z,19.57
2019-01-11T15:00:18.614Z,20.70
2019-01-11T15:02:47.539Z,19.07
2019-01-11T15:05:16.957Z,21.63
2019-01-11T15:07:45.677Z,22.40
2019-01-11T15:10:15.661Z,21.90
2019-01-11T15:12:45.711Z,22.80
2019-01-11T15:15:15.958Z,22.67
2019-01-11T15:17:44.711Z,25.60
2019-01-11T15:20:15.739Z,23.93
2019-01-11T15:22:44.422Z,24.00
2019-01-11T15:25:13.103Z,26.07
2019-01-11T15:27:43.058Z,25.33
2019-01-11T15:30:14.661Z,25.97
2019-01-11T15:32:43.337Z,26.57
2019-01-11T15:35:11.933Z,29.17
2019-01-11T15:37:42.202Z,26.23
2019-01-11T15:40:22.174Z,27.83
2019-01-11T15:42:51.051Z,30.27
2019-01-11T15:45:20.024Z,29.53
2019-01-11T15:47:48.715Z,32.63
2019-01-11T15:50:45.767Z,33.13
2019-01-11T15:53:14.583Z,31.47
2019-01-11T15:55:43.302Z,34.83
2019-01-11T15:58:12.067Z,36.70
2019-01-11T16:00:42.952Z,33.63
2019-01-11T16:03:11.740Z,39.00
2019-01-11T16:05:40.429Z,34.50
2019-01-11T16:08:09.168Z,34.53
2019-01-11T16:10:39.464Z,35.70
2019-01-11T16:13:11.313Z,35.03
2019-01-11T16:15:46.869Z,36.17
2019-01-11T16:18:18.782Z,37.20
2019-01-11T16:20:47.470Z,38.63
2019-01-11T16:23:16.300Z,35.03
2019-01-11T16:25:45.102Z,36.80
2019-01-11T16:28:15.774Z,40.53
2019-01-11T16:30:44.411Z,41.27
2019-01-11T16:33:13.114Z,38.83
2019-01-11T16:35:41.781Z,37.77
2019-01-11T16:38:27.154Z,37.67
2019-01-11T16:40:55.847Z,38.20
2019-01-11T16:43:26.239Z,36.87
2019-01-11T16:45:56.037Z,39.33
2019-01-11T16:48:24.737Z,37.60
2019-01-11T16:50:53.424Z,39.70
2019-01-11T16:53:22.089Z,40.20
2019-01-11T16:55:50.811Z,40.80
2019-01-11T16:58:19.487Z,38.03
2019-01-11T17:00:48.194Z,40.30
2019-01-11T17:03:20.205Z,43.07
2019-01-11T17:05:48.861Z,44.77
2019-01-11T17:08:17.593Z,45.37
2019-01-11T17:10:49.301Z,46.40
2019-01-11T17:13:24.545Z,85.37
2019-01-11T17:15:53.521Z,42.93
2019-01-11T17:18:24.560Z,44.60
2019-01-11T17:20:54.804Z,47.93
2019-01-11T17:23:23.673Z,62.07
2019-01-11T17:25:56.521Z,57.27
2019-01-11T17:28:22.793Z,59.47
2019-01-11T17:30:51.573Z,55.87
2019-01-11T17:36:12.603Z,59.77
2019-01-11T17:38:51.971Z,54.00
2019-01-11T17:41:22.014Z,56.07
2019-01-11T17:43:50.712Z,54.87
2019-01-11T17:46:19.383Z,50.37
2019-01-11T17:51:47.903Z,38.63
2019-01-11T17:54:16.603Z,38.33
2019-01-11T17:56:51.371Z,39.33
2019-01-11T17:59:23.009Z,41.27
2019-01-11T18:01:51.958Z,35.90
2019-01-11T18:07:30.803Z,30.50
2019-01-11T18:10:01.437Z,28.93
2019-01-11T18:18:58.790Z,31.03
2019-01-11T18:21:23.273Z,31.63
2019-01-11T18:23:51.956Z,32.00
2019-01-11T18:26:36.305Z,28.37
2019-01-11T18:29:05.037Z,28.50
2019-01-11T18:31:33.673Z,30.87
2019-01-11T18:34:03.740Z,29.73
2019-01-11T18:36:32.412Z,32.57
2019-01-11T18:39:01.101Z,32.63
2019-01-11T18:41:29.767Z,31.13
2019-01-11T18:43:58.467Z,32.37
2019-01-11T18:46:27.337Z,32.03
2019-01-11T18:48:56.006Z,31.37
2019-01-11T18:51:26.000Z,39.03
2019-01-11T18:53:56.972Z,31.77
2019-01-11T18:56:51.043Z,31.30
2019-01-11T18:59:33.886Z,33.03
2019-01-11T19:20:33.052Z,28.57
2019-01-11T19:23:02.629Z,25.83
2019-01-11T19:25:31.358Z,27.30
2019-01-11T19:28:00.319Z,25.60
2019-01-11T19:30:28.989Z,21.13
2019-01-11T19:32:57.823Z,20.80
2019-01-11T19:35:26.563Z,21.93
2019-01-11T19:37:55.428Z,25.10
2019-01-11T19:40:25.465Z,24.93
2019-01-11T19:42:54.120Z,26.30
2019-01-11T19:45:24.497Z,24.07
2019-01-11T19:47:53.205Z,23.73
2019-01-11T19:50:22.670Z,23.37
2019-01-11T19:52:51.372Z,24.03
2019-01-11T19:55:20.088Z,21.47
2019-01-11T19:57:50.557Z,23.77
2019-01-11T20:00:24.518Z,22.23
2019-01-11T20:02:53.677Z,22.27
2019-01-11T20:05:22.499Z,23.23
2019-01-11T20:07:51.185Z,25.40
2019-01-11T20:10:32.401Z,23.43
2019-01-11T20:13:01.084Z,23.53
2019-01-11T20:15:50.943Z,23.37
2019-01-11T20:18:20.859Z,20.33
2019-01-11T20:20:49.885Z,22.23
2019-01-11T20:23:18.601Z,22.63
2019-01-11T20:25:47.287Z,23.80
2019-01-11T20:28:18.580Z,21.40
2019-01-11T20:30:47.277Z,21.50
2019-01-11T20:33:15.982Z,21.47
2019-01-11T20:35:44.692Z,20.17
2019-01-11T20:38:13.364Z,21.93
2019-01-11T20:40:44.497Z,22.87
2019-01-11T20:43:17.906Z,21.97
2019-01-11T20:45:53.016Z,24.07
2019-01-11T20:48:22.807Z,21.10
2019-01-11T20:50:54.351Z,19.10
2019-01-11T20:53:24.361Z,21.53
2019-01-11T20:55:54.379Z,21.00
2019-01-11T20:58:25.102Z,23.27
2019-01-11T21:00:55.124Z,21.70
2019-01-11T21:03:28.890Z,20.83
2019-01-11T21:06:03.719Z,22.20
2019-01-11T21:08:33.582Z,19.83
2019-01-11T21:11:02.375Z,21.47
2019-01-11T21:13:31.081Z,20.40
2019-01-11T21:15:59.709Z,20.93
2019-01-11T21:18:28.473Z,23.90
2019-01-11T21:20:57.173Z,21.80
2019-01-11T21:23:25.906Z,21.80
2019-01-11T21:25:54.531Z,22.63
2019-01-11T21:28:23.216Z,23.80
2019-01-11T21:30:57.208Z,24.53
2019-01-11T21:33:22.344Z,22.93
2019-01-11T21:35:51.072Z,23.33
2019-01-11T21:38:19.746Z,23.77
2019-01-11T21:40:48.548Z,23.93
2019-01-11T21:43:17.222Z,28.20
2019-01-11T21:45:45.878Z,28.93
2019-01-11T21:48:14.537Z,28.80
2019-01-11T21:50:43.205Z,28.37
2019-01-11T21:53:11.947Z,29.00
2019-01-11T21:55:40.615Z,29.07
2019-01-11T21:58:09.346Z,27.37
2019-01-11T22:00:38.680Z,27.10
2019-01-11T22:03:08.229Z,24.00
2019-01-11T22:05:38.458Z,24.13
2019-01-11T22:08:08.699Z,25.03
2019-01-11T22:10:37.410Z,27.53
2019-01-11T22:13:06.099Z,25.43
2019-01-11T22:15:34.795Z,24.07
2019-01-11T22:18:04.727Z,24.07
2019-01-11T22:20:33.836Z,23.80
2019-01-11T22:23:02.524Z,20.70
2019-01-11T22:25:31.207Z,23.37
2019-01-11T22:27:59.927Z,23.70
2019-01-11T22:30:30.419Z,27.37
2019-01-11T22:32:58.916Z,28.57
2019-01-11T22:35:27.574Z,30.37
2019-01-11T22:37:56.252Z,30.90
2019-01-11T22:40:25.017Z,28.80
2019-01-11T22:42:56.004Z,27.87
2019-01-11T22:45:24.732Z,28.00
2019-01-11T22:47:54.972Z,31.93
2019-01-11T22:50:23.780Z,30.37
2019-01-11T22:52:52.583Z,33.53
2019-01-11T22:55:21.252Z,30.93
2019-01-11T22:57:50.582Z,33.07
2019-01-11T23:00:41.172Z,39.90
2019-01-11T23:03:18.946Z,36.23
2019-01-11T23:05:48.613Z,32.87
2019-01-11T23:08:18.890Z,39.20
2019-01-11T23:11:13.447Z,40.87
2019-01-11T23:13:42.257Z,33.73
2019-01-11T23:16:14.053Z,40.33
2019-01-11T23:18:42.729Z,37.53
2019-01-11T23:21:11.540Z,38.20
2019-01-11T23:23:42.976Z,39.80
2019-01-11T23:26:11.697Z,36.57
2019-01-11T23:28:40.379Z,37.27
2019-01-11T23:31:09.043Z,40.27
2019-01-11T23:33:37.797Z,44.23
2019-01-11T23:36:06.499Z,35.83
2019-01-11T23:38:35.282Z,36.17
2019-01-11T23:41:03.972Z,36.00
2019-01-11T23:43:32.745Z,35.07
2019-01-11T23:46:01.378Z,36.43
2019-01-11T23:48:30.043Z,34.63
2019-01-11T23:50:58.762Z,35.80
2019-01-11T23:53:27.556Z,36.13
2019-01-11T23:55:56.219Z,32.23
2019-01-11T23:58:24.915Z,32.17
